• Join FlightAware (Why Join?)
  • Login
  • US Flag 
02:27PM EDT


 

Airport Tracker/Info


-or-


 

Live Flight TrackerFlight Track Log ✈ SWA3211 ✈ 10-Jul-2013 ✈ KSEA - KSMF

Flight Track Log - Related Links

Times and Time Zones

All times are in EDT time to prevent confusion due to time zone crossing. See the SWA3211 flight status page for this flight to view local times or setup timezone preferences in your user account.

Time Position Orientation Groundspeed Altitude Reporting Facility
EDT Latitude Longitude Course Direction KTS MPH feet Rate Location/Type
11:59PM 47.3440 -122.3080 178° South 248 285 5,600  Level FlightAware
11:59PM 47.3090 -122.2880 159° South 282 325 7,000 3,000 Climbing FlightAware
12:00AM 47.2790 -122.2580 146° Southeast 290 334 8,500 3,360 Climbing FlightAware
12:00AM 47.2580 -122.2360 145° Southeast 299 344 9,700 2,880 Climbing FlightAware
12:00AM 47.2150 -122.1910 145° Southeast 342 394 11,100 2,700 Climbing FlightAware
12:01AM 47.1770 -122.1680 158° South 346 398 12,400 3,780 Climbing FlightAware
12:02AM 47.0940 -122.1500 172° South 349 402 15,900 3,780 Climbing FlightAware
12:02AM 47.0140 -122.1470 179° South 365 420 18,700 3,300 Climbing FlightAware
12:03AM 46.9590 -122.1460 179° South 370 426 20,600 3,180 Climbing FlightAware
12:04AM 46.8730 -122.1430 179° South 387 445 23,100 2,880 Climbing FlightAware
12:05AM 46.7970 -122.1400 178° South 401 461 24,900 2,400 Climbing FlightAware
12:05AM 46.7110 -122.1370 179° South 416 479 26,600 2,280 Climbing FlightAware
12:06AM 46.6450 -122.1350 179° South 426 490 27,900 1,320 Climbing FlightAware
12:07AM 46.5740 -122.1310 178° South 429 494 28,300 300 Climbing FlightAware
12:07AM 46.5140 -122.1280 178° South 429 494 28,300 3,180 Level FlightAware
12:08AM 46.4170 -122.1270 180° South 430 495 32,300 4,260 Climbing FlightAware
12:09AM 46.3270 -122.1210 177° South 422 486 34,200 2,340 Climbing FlightAware
12:09AM 46.2430 -122.1120 176° South 417 480 35,800 2,280 Climbing FlightAware
12:10AM 46.1660 -122.1040 176° South 405 466 37,400 2,280 Climbing FlightAware
12:11AM 46.0990 -122.0980 176° South 391 450 38,800 1,680 Climbing FlightAware
12:11AM 46.0060 -122.0890 176° South 393 452 39,900 1,200 Climbing FlightAware
12:12AM 45.9370 -122.0810 175° South 395 455 40,600 840 Climbing FlightAware
12:13AM 45.8690 -122.0750 176° South 397 457 41,000 300 Climbing FlightAware
12:13AM 45.7950 -122.0670 176° South 396 456 41,000  Level FlightAware
12:14AM 45.7370 -122.0620 177° South 394 453 41,000  Level FlightAware
12:16AM 45.5590 -122.0440 176° South 393 452 41,000  Level FlightAware
12:17AM 45.4290 -122.0310 176° South 393 452 41,000  Level FlightAware
12:18AM 45.3250 -122.0210 176° South 396 456 41,000  Level FlightAware
12:19AM 45.2240 -122.0110 176° South 396 456 41,000  Level FlightAware
12:19AM 45.1670 -122.0060 176° South 395 455 41,000  Level FlightAware
12:20AM 45.0840 -121.9980 176° South 394 453 41,000  Level FlightAware
12:20AM 45.0110 -121.9910 176° South 395 455 41,000  Level FlightAware
12:21AM 44.9460 -121.9840 176° South 397 457 41,000  Level FlightAware
12:22AM 44.8660 -121.9770 176° South 402 463 41,000  Level FlightAware
12:22AM 44.7890 -121.9690 176° South 402 463 41,000  Level FlightAware
12:23AM 44.7160 -121.9620 176° South 402 463 41,000  Level FlightAware
12:24AM 44.6300 -121.9540 176° South 400 460 41,000  Level FlightAware
12:25AM 44.5580 -121.9470 176° South 397 457 41,000  Level FlightAware
12:25AM 44.4860 -121.9400 176° South 395 455 41,000  Level FlightAware
12:26AM 44.4140 -121.9340 177° South 394 453 41,000  Level FlightAware
12:27AM 44.3250 -121.9250 176° South 393 452 41,000  Level FlightAware
12:27AM 44.2360 -121.9170 176° South 393 452 41,000  Level FlightAware
12:28AM 44.1460 -121.9080 176° South 394 453 41,000  Level FlightAware
12:29AM 44.0560 -121.9000 176° South 393 452 41,000  Level FlightAware
12:30AM 43.9760 -121.8920 176° South 394 453 41,000  Level FlightAware
12:31AM 43.9010 -121.8850 176° South 393 452 41,000  Level FlightAware
12:31AM 43.8190 -121.8780 176° South 393 452 41,000  Level FlightAware
12:32AM 43.7550 -121.8720 176° South 393 452 41,000  Level FlightAware
12:33AM 43.6740 -121.8640 176° South 396 456 41,000  Level FlightAware
12:33AM 43.6000 -121.8580 177° South 399 459 41,000  Level FlightAware
12:34AM 43.5250 -121.8510 176° South 402 463 41,000  Level FlightAware
12:35AM 43.4550 -121.8440 176° South 402 463 41,000  Level FlightAware
12:36AM 43.3550 -121.8350 176° South 403 464 41,000  Level FlightAware
12:36AM 43.2850 -121.8290 176° South 401 461 41,000  Level FlightAware
12:37AM 43.2170 -121.8220 176° South 399 459 41,000  Level FlightAware
12:38AM 43.1370 -121.8150 176° South 399 459 41,000  Level FlightAware
12:38AM 43.0810 -121.8090 176° South 399 459 41,000  Level FlightAware
12:39AM 43.0040 -121.8020 176° South 399 459 41,000  Level FlightAware
12:40AM 42.9460 -121.7960 176° South 399 459 41,000  Level FlightAware
12:40AM 42.8710 -121.7890 176° South 399 459 41,000  Level FlightAware
12:41AM 42.8150 -121.7840 176° South 399 459 41,000  Level FlightAware
12:42AM 42.7380 -121.7770 176° South 399 459 41,000  Level FlightAware
12:42AM 42.6820 -121.7710 175° South 399 459 41,000  Level FlightAware
12:43AM 42.6050 -121.7640 176° South 399 459 41,000  Level FlightAware
12:44AM 42.5490 -121.7590 176° South 399 459 41,000  Level FlightAware
12:45AM 42.4740 -121.7520 176° South 399 459 41,000  Level FlightAware
12:45AM 42.4170 -121.7460 176° South 399 459 41,000  Level FlightAware
12:46AM 42.3420 -121.7390 176° South 399 459 41,000  Level FlightAware
12:47AM 42.2860 -121.7340 176° South 399 459 41,000  Level FlightAware
12:51AM 41.6580 -121.7250 179° South 388 447 41,000  Level FlightAware
12:52AM 41.5830 -121.7250 180° South 403 464 41,000  Level FlightAware
12:52AM 41.4960 -121.7240 180° South 405 466 41,000  Level FlightAware
12:53AM 41.4210 -121.7240 180° South 406 467 41,000  Level FlightAware
12:54AM 41.3480 -121.7240 180° South 406 467 41,000  Level FlightAware
12:55AM 41.2630 -121.7240 180° South 405 466 41,000  Level FlightAware
12:55AM 41.1800 -121.7230 179° South 402 463 41,000  Level FlightAware
12:56AM 41.1130 -121.7190 177° South 389 448 41,000  Level FlightAware
12:57AM 41.0410 -121.7140 177° South 385 443 41,000  Level FlightAware
12:57AM 40.9680 -121.7100 178° South 385 443 41,000  Level FlightAware
12:58AM 40.8860 -121.7050 177° South 385 443 41,000  Level FlightAware
12:59AM 40.8060 -121.7010 178° South 389 448 41,000  Level FlightAware
12:59AM 40.7340 -121.6960 177° South 374 430 41,000  Level FlightAware
01:00AM 40.6610 -121.6920 178° South 373 429 41,000  Level FlightAware
01:01AM 40.5980 -121.6880 177° South 383 441 41,000  Level FlightAware
01:01AM 40.5170 -121.6840 178° South 384 442 41,000 -780 Level FlightAware
01:02AM 40.4530 -121.6800 177° South 387 445 40,000 -2,340 Descending FlightAware
01:03AM 40.3740 -121.6750 177° South 374 430 37,900 -2,940 Descending FlightAware
01:03AM 40.3120 -121.6720 178° South 369 425 36,200 -3,240 Descending FlightAware
01:04AM 40.2420 -121.6680 178° South 373 429 33,900 -3,480 Descending FlightAware
01:05AM 40.1640 -121.6630 177° South 374 430 31,400 -3,060 Descending FlightAware
01:05AM 40.1020 -121.6600 178° South 371 427 29,800 -2,700 Descending FlightAware
01:06AM 40.0270 -121.6550 177° South 351 404 27,800 -2,580 Descending FlightAware
01:07AM 39.9690 -121.6520 178° South 354 407 26,400 -2,520 Descending FlightAware
01:07AM 39.8960 -121.6480 178° South 342 394 24,500 -2,580 Descending FlightAware
01:08AM 39.8300 -121.6440 177° South 337 388 22,800 -2,460 Descending FlightAware
01:09AM 39.7600 -121.6400 177° South 341 392 21,000 -2,460 Descending FlightAware
01:09AM 39.6970 -121.6360 177° South 338 389 19,400 -2,520 Descending FlightAware
01:10AM 39.6340 -121.6330 178° South 342 394 17,800 -2,460 Descending FlightAware
01:10AM 39.6020 -121.6310 177° South 335 386 16,900 -2,460 Descending FlightAware
01:11AM 39.5270 -121.6270 178° South 335 386 15,100 -2,400 Descending FlightAware
01:12AM 39.4710 -121.6230 177° South 329 379 13,600 -2,400 Descending FlightAware
01:12AM 39.4120 -121.6200 178° South 320 368 12,100 -2,340 Descending FlightAware
01:13AM 39.3600 -121.6170 177° South 315 362 10,700 -1,560 Descending FlightAware
01:14AM 39.3030 -121.6140 178° South 275 316 10,100 -960 Descending FlightAware
01:14AM 39.2710 -121.6120 177° South 262 302 9,700 -1,380 Descending FlightAware
01:15AM 39.2350 -121.6100 178° South 258 297 8,900 -1,620 Descending FlightAware
01:15AM 39.1970 -121.6080 178° South 259 298 8,100 -1,620 Descending FlightAware
01:16AM 39.1660 -121.6070 179° South 256 295 7,400 -1,560 Descending FlightAware
01:16AM 39.1300 -121.6040 176° South 259 298 6,700 -1,260 Descending FlightAware
01:16AM 39.1170 -121.6040 180° South 258 297 6,500 -1,500 Descending FlightAware
01:17AM 39.0820 -121.6020 177° South 256 295 5,700 -1,500 Descending FlightAware
01:17AM 39.0470 -121.6000 177° South 246 283 5,100 -1,320 Descending FlightAware
01:18AM 39.0280 -121.5990 178° South 246 283 4,700 -1,920 Descending FlightAware
01:18AM 38.9930 -121.5970 177° South 259 298 3,700 -1,920 Descending FlightAware
01:18AM 38.9640 -121.5980 182° South 262 302 3,000 -1,620 Descending FlightAware
01:19AM 38.9340 -121.5980 180° South 259 298 2,400 -1,380 Descending FlightAware
01:19AM 38.9040 -121.5990 181° South 254 292 1,900 -540 Descending FlightAware
01:20AM 38.8680 -121.5990 180° South 230 265 1,900  Level FlightAware
01:20AM 38.8380 -121.5990 180° South 217 250 1,900  Level FlightAware
01:21AM 38.8160 -121.5990 180° South 194 223 1,900 -360 Level FlightAware
01:21AM 38.7930 -121.6000 182° South 167 192 1,600 -600 Descending FlightAware
01:22AM 38.7770 -121.6000 180° South 146 168 1,400 -600 Descending FlightAware
01:22AM 38.7630 -121.6000 180° South 128 147 1,200 -720 Descending FlightAware
01:22AM 38.7470 -121.6000 180° South 125 144 800 -660 Descending FlightAware
01:23AM 38.7320 -121.6010 183° South 119 137 600 -600 Descending FlightAware
01:23AM 38.7170 -121.6010 180° South 116 133 300 -780 Descending FlightAware
01:23AM 38.7130 -121.6010 180° South 113 130 200 -780 Descending FlightAware
01:24AM 38.6910 -121.6010 180° South 58 67 -240 Descending FlightAware
01:31AM 38.6833 -121.5833 180° South  Level FlightAware Approximate
01:32AM 38.6954 -121.5908 180° South  Level Estimated
01:33AM 38.6954 -121.5908 180° South  Level Estimated